VTSH

Songkhla Airport

Thailand
TAF VTSH 171700Z 1718/1818 07005KT 9999 FEW020 PROB30 TEMPO 1720/1802 5000 -RA BR SCT015 BKN100
Issued Valid From Valid To
Jan-17 @ 17:00 UTC
(6 hours ago)
Jan-17 @ 18:00 UTC
(5 hours ago)
Jan-18 @ 18:00 UTC
(in 19 hours)
Jan-17 @ 18:00 to Jan-18 @ 18:00
TAF VTSH 171700Z 1718/1818 07005KT 9999 FEW020
Wind Visibility Clouds
70° at 5 knots 10,000+ meters
  • Few at 2,000' AGL
Temporary  (Probability 30%) Jan-17 @ 20:00 to Jan-18 @ 02:00
PROB30 TEMPO 1720/1802 5000 -RA BR SCT015 BKN100
Visibility Clouds Conditions
5,005 meters
  • Scattered at 1,500' AGL
  • Broken at 10,000' AGL
  • Light Rain
  • Mist
TAF VTSH 171700Z 1718/1818 07005KT 9999 FEW020 PROB30 TEMPO 1720/1802 5000 -RA BR SCT015 BKN100
Issued Jan-17 @ 17:00 UTC
(6 hours ago)
Valid From Jan-17 @ 18:00 UTC
(5 hours ago)
Valid To Jan-18 @ 18:00 UTC
(in 19 hours)
Jan-17 @ 18:00 - Jan-18 @ 18:00
Wind Visibility
70° at 5 knots 10,000+ meters
Clouds
  • Few at 2,000' AGL
Probability 30% Temporary Jan-17 @ 20:00 - Jan-18 @ 02:00
Clouds
  • Scattered at 1,500' AGL
  • Broken at 10,000' AGL
Conditions
  • Light Rain
  • Mist